sensor_id;sensor_type;location;lat;lon;timestamp;temperature;humidity
52415;DHT22;38340;52.964;6.086;2023-03-01T00:01:46;-1.50;99.90
52415;DHT22;38340;52.964;6.086;2023-03-01T00:04:12;-1.50;99.90
52415;DHT22;38340;52.964;6.086;2023-03-01T00:06:37;-1.60;99.90
52415;DHT22;38340;52.964;6.086;2023-03-01T00:09:03;-1.70;99.90
52415;DHT22;38340;52.964;6.086;2023-03-01T00:11:30;-1.70;99.90
52415;DHT22;38340;52.964;6.086;2023-03-01T00:13:58;-1.70;99.90
52415;DHT22;38340;52.964;6.086;2023-03-01T00:16:37;-1.70;99.90
52415;DHT22;38340;52.964;6.086;2023-03-01T00:19:05;-1.70;99.90
52415;DHT22;38340;52.964;6.086;2023-03-01T00:21:32;-1.80;99.90
52415;DHT22;38340;52.964;6.086;2023-03-01T00:23:59;-1.80;99.90
52415;DHT22;38340;52.964;6.086;2023-03-01T00:26:25;-1.90;99.90
52415;DHT22;38340;52.964;6.086;2023-03-01T00:28:52;-1.90;99.90
52415;DHT22;38340;52.964;6.086;2023-03-01T00:31:21;-1.90;99.90
52415;DHT22;38340;52.964;6.086;2023-03-01T00:33:46;-1.90;99.90
52415;DHT22;38340;52.964;6.086;2023-03-01T00:36:14;-1.90;99.90
52415;DHT22;38340;52.964;6.086;2023-03-01T00:38:43;-1.90;99.90
52415;DHT22;38340;52.964;6.086;2023-03-01T00:41:12;-1.90;99.90
52415;DHT22;38340;52.964;6.086;2023-03-01T00:43:38;-2.00;99.90
52415;DHT22;38340;52.964;6.086;2023-03-01T00:46:07;-2.00;99.90
52415;DHT22;38340;52.964;6.086;2023-03-01T00:48:33;-2.10;99.90
52415;DHT22;38340;52.964;6.086;2023-03-01T00:51:17;-2.10;99.90
52415;DHT22;38340;52.964;6.086;2023-03-01T00:53:44;-2.10;99.90
52415;DHT22;38340;52.964;6.086;2023-03-01T00:56:11;-2.10;99.90
52415;DHT22;38340;52.964;6.086;2023-03-01T00:58:38;-2.10;99.90
52415;DHT22;38340;52.964;6.086;2023-03-01T01:01:21;-2.10;99.90
52415;DHT22;38340;52.964;6.086;2023-03-01T01:03:55;-2.20;99.90
52415;DHT22;38340;52.964;6.086;2023-03-01T01:06:35;-2.30;99.90
52415;DHT22;38340;52.964;6.086;2023-03-01T01:09:03;-2.30;99.90
52415;DHT22;38340;52.964;6.086;2023-03-01T01:11:30;-2.30;99.90
52415;DHT22;38340;52.964;6.086;2023-03-01T01:13:56;-2.40;99.90
52415;DHT22;38340;52.964;6.086;2023-03-01T01:16:24;-2.30;99.90
52415;DHT22;38340;52.964;6.086;2023-03-01T01:18:51;-2.30;99.90
52415;DHT22;38340;52.964;6.086;2023-03-01T01:21:19;-2.40;99.90
52415;DHT22;38340;52.964;6.086;2023-03-01T01:23:46;-2.40;99.90
52415;DHT22;38340;52.964;6.086;2023-03-01T01:26:26;-2.40;99.90
52415;DHT22;38340;52.964;6.086;2023-03-01T01:28:53;-2.40;99.90
52415;DHT22;38340;52.964;6.086;2023-03-01T01:31:19;-2.40;99.90
52415;DHT22;38340;52.964;6.086;2023-03-01T01:33:45;-2.40;99.90
52415;DHT22;38340;52.964;6.086;2023-03-01T01:36:11;-2.50;99.90
52415;DHT22;38340;52.964;6.086;2023-03-01T01:38:38;-2.60;99.90
52415;DHT22;38340;52.964;6.086;2023-03-01T01:41:04;-2.90;99.90
52415;DHT22;38340;52.964;6.086;2023-03-01T01:43:34;-2.90;99.90
52415;DHT22;38340;52.964;6.086;2023-03-01T01:48:53;-2.80;99.90
52415;DHT22;38340;52.964;6.086;2023-03-01T01:51:24;-2.70;99.90
52415;DHT22;38340;52.964;6.086;2023-03-01T01:53:54;-2.70;99.90
52415;DHT22;38340;52.964;6.086;2023-03-01T01:56:23;-2.70;99.90
52415;DHT22;38340;52.964;6.086;2023-03-01T01:58:49;-2.70;99.90
52415;DHT22;38340;52.964;6.086;2023-03-01T02:01:16;-2.80;99.90
52415;DHT22;38340;52.964;6.086;2023-03-01T02:03:43;-2.80;99.90
52415;DHT22;38340;52.964;6.086;2023-03-01T02:08:37;-2.90;99.90
52415;DHT22;38340;52.964;6.086;2023-03-01T02:11:04;-2.90;99.90
52415;DHT22;38340;52.964;6.086;2023-03-01T02:13:33;-2.80;99.90
52415;DHT22;38340;52.964;6.086;2023-03-01T02:16:09;-2.90;99.90
52415;DHT22;38340;52.964;6.086;2023-03-01T02:18:38;-2.80;99.90
52415;DHT22;38340;52.964;6.086;2023-03-01T02:21:17;-2.70;99.90
52415;DHT22;38340;52.964;6.086;2023-03-01T02:23:47;-2.60;99.90
52415;DHT22;38340;52.964;6.086;2023-03-01T02:29:06;-2.60;99.90
52415;DHT22;38340;52.964;6.086;2023-03-01T02:31:32;-2.50;99.90
52415;DHT22;38340;52.964;6.086;2023-03-01T02:34:09;-2.40;99.90
52415;DHT22;38340;52.964;6.086;2023-03-01T02:36:48;-2.50;99.90
52415;DHT22;38340;52.964;6.086;2023-03-01T02:39:18;-2.60;99.90
52415;DHT22;38340;52.964;6.086;2023-03-01T02:41:51;-2.70;99.90
52415;DHT22;38340;52.964;6.086;2023-03-01T02:44:17;-2.70;99.90
52415;DHT22;38340;52.964;6.086;2023-03-01T02:46:48;-2.70;99.90
52415;DHT22;38340;52.964;6.086;2023-03-01T02:54:51;-2.90;99.90
52415;DHT22;38340;52.964;6.086;2023-03-01T02:57:20;-2.90;99.90
52415;DHT22;38340;52.964;6.086;2023-03-01T02:59:48;-3.00;99.90
52415;DHT22;38340;52.964;6.086;2023-03-01T03:02:23;-3.00;99.90
52415;DHT22;38340;52.964;6.086;2023-03-01T03:07:33;-3.00;99.90
52415;DHT22;38340;52.964;6.086;2023-03-01T03:09:59;-3.00;99.90
52415;DHT22;38340;52.964;6.086;2023-03-01T03:12:25;-3.00;99.90
52415;DHT22;38340;52.964;6.086;2023-03-01T03:14:51;-3.10;99.90
52415;DHT22;38340;52.964;6.086;2023-03-01T03:17:16;-3.10;99.90
52415;DHT22;38340;52.964;6.086;2023-03-01T03:19:42;-3.10;99.90
52415;DHT22;38340;52.964;6.086;2023-03-01T03:22:11;-3.10;99.90
52415;DHT22;38340;52.964;6.086;2023-03-01T03:24:37;-3.20;99.90
52415;DHT22;38340;52.964;6.086;2023-03-01T03:27:04;-3.20;99.90
52415;DHT22;38340;52.964;6.086;2023-03-01T03:29:30;-3.30;99.90
52415;DHT22;38340;52.964;6.086;2023-03-01T03:31:56;-3.30;99.90
52415;DHT22;38340;52.964;6.086;2023-03-01T03:34:22;-3.30;99.90
52415;DHT22;38340;52.964;6.086;2023-03-01T03:36:47;-3.40;99.90
52415;DHT22;38340;52.964;6.086;2023-03-01T03:39:13;-3.40;99.90
52415;DHT22;38340;52.964;6.086;2023-03-01T03:41:39;-3.40;99.90
52415;DHT22;38340;52.964;6.086;2023-03-01T03:44:04;-3.30;99.90
52415;DHT22;38340;52.964;6.086;2023-03-01T03:46:30;-3.30;99.90
52415;DHT22;38340;52.964;6.086;2023-03-01T03:48:56;-3.10;99.90
52415;DHT22;38340;52.964;6.086;2023-03-01T03:51:21;-3.10;99.90
52415;DHT22;38340;52.964;6.086;2023-03-01T03:53:48;-3.00;99.90
52415;DHT22;38340;52.964;6.086;2023-03-01T03:56:14;-3.00;99.90
52415;DHT22;38340;52.964;6.086;2023-03-01T03:58:40;-3.10;99.90
52415;DHT22;38340;52.964;6.086;2023-03-01T04:01:06;-3.10;99.90
52415;DHT22;38340;52.964;6.086;2023-03-01T04:03:32;-3.10;99.90
52415;DHT22;38340;52.964;6.086;2023-03-01T04:05:59;-3.20;99.90
52415;DHT22;38340;52.964;6.086;2023-03-01T04:08:25;-3.40;99.90
52415;DHT22;38340;52.964;6.086;2023-03-01T04:10:55;-3.50;99.90
52415;DHT22;38340;52.964;6.086;2023-03-01T04:13:22;-3.50;99.90
52415;DHT22;38340;52.964;6.086;2023-03-01T04:15:51;-3.40;99.90
52415;DHT22;38340;52.964;6.086;2023-03-01T04:18:19;-3.40;99.90
52415;DHT22;38340;52.964;6.086;2023-03-01T04:20:45;-3.40;99.90
52415;DHT22;38340;52.964;6.086;2023-03-01T04:23:17;-3.40;99.90
52415;DHT22;38340;52.964;6.086;2023-03-01T04:25:57;-3.30;99.90
52415;DHT22;38340;52.964;6.086;2023-03-01T04:30:51;-3.20;99.90
52415;DHT22;38340;52.964;6.086;2023-03-01T04:33:17;-3.10;99.90
52415;DHT22;38340;52.964;6.086;2023-03-01T04:35:44;-3.00;99.90
52415;DHT22;38340;52.964;6.086;2023-03-01T04:38:09;-3.00;99.90
52415;DHT22;38340;52.964;6.086;2023-03-01T04:40:36;-3.00;99.90
52415;DHT22;38340;52.964;6.086;2023-03-01T04:43:02;-3.00;99.90
52415;DHT22;38340;52.964;6.086;2023-03-01T04:45:28;-3.10;99.90
52415;DHT22;38340;52.964;6.086;2023-03-01T04:47:54;-3.20;99.90
52415;DHT22;38340;52.964;6.086;2023-03-01T04:50:20;-3.40;99.90
52415;DHT22;38340;52.964;6.086;2023-03-01T04:52:47;-3.50;99.90
52415;DHT22;38340;52.964;6.086;2023-03-01T04:55:13;-3.60;99.90
52415;DHT22;38340;52.964;6.086;2023-03-01T04:57:39;-3.60;99.90
52415;DHT22;38340;52.964;6.086;2023-03-01T05:00:08;-3.70;99.90
52415;DHT22;38340;52.964;6.086;2023-03-01T05:02:57;-3.80;99.90
52415;DHT22;38340;52.964;6.086;2023-03-01T05:05:37;-3.80;99.90
52415;DHT22;38340;52.964;6.086;2023-03-01T05:08:06;-3.90;99.90
52415;DHT22;38340;52.964;6.086;2023-03-01T05:10:34;-4.00;99.90
52415;DHT22;38340;52.964;6.086;2023-03-01T05:13:01;-3.90;99.90
52415;DHT22;38340;52.964;6.086;2023-03-01T05:15:28;-4.00;99.90
52415;DHT22;38340;52.964;6.086;2023-03-01T05:17:56;-4.00;99.90
52415;DHT22;38340;52.964;6.086;2023-03-01T05:20:24;-4.10;99.90
52415;DHT22;38340;52.964;6.086;2023-03-01T05:22:51;-4.10;99.90
52415;DHT22;38340;52.964;6.086;2023-03-01T05:25:17;-4.10;99.90
52415;DHT22;38340;52.964;6.086;2023-03-01T05:27:43;-4.20;99.90
52415;DHT22;38340;52.964;6.086;2023-03-01T05:30:09;-4.30;99.90
52415;DHT22;38340;52.964;6.086;2023-03-01T05:32:43;-4.30;99.90
52415;DHT22;38340;52.964;6.086;2023-03-01T05:35:10;-4.30;99.90
52415;DHT22;38340;52.964;6.086;2023-03-01T05:37:40;-4.30;99.90
52415;DHT22;38340;52.964;6.086;2023-03-01T05:40:08;-4.20;99.90
52415;DHT22;38340;52.964;6.086;2023-03-01T05:42:44;-4.30;99.90
52415;DHT22;38340;52.964;6.086;2023-03-01T05:45:11;-4.40;99.90
52415;DHT22;38340;52.964;6.086;2023-03-01T05:47:39;-4.40;99.90
52415;DHT22;38340;52.964;6.086;2023-03-01T05:50:14;-4.50;99.90
52415;DHT22;38340;52.964;6.086;2023-03-01T05:52:47;-4.50;99.90
52415;DHT22;38340;52.964;6.086;2023-03-01T05:55:18;-4.60;99.90
52415;DHT22;38340;52.964;6.086;2023-03-01T05:57:43;-4.50;99.90
52415;DHT22;38340;52.964;6.086;2023-03-01T06:00:10;-4.40;99.90
52415;DHT22;38340;52.964;6.086;2023-03-01T06:02:37;-4.50;99.90
52415;DHT22;38340;52.964;6.086;2023-03-01T06:05:04;-4.50;99.90
52415;DHT22;38340;52.964;6.086;2023-03-01T06:07:31;-4.50;99.90
52415;DHT22;38340;52.964;6.086;2023-03-01T06:09:57;-4.60;99.90
52415;DHT22;38340;52.964;6.086;2023-03-01T06:12:22;-4.60;99.90
52415;DHT22;38340;52.964;6.086;2023-03-01T06:14:48;-4.60;99.90
52415;DHT22;38340;52.964;6.086;2023-03-01T06:17:14;-4.70;99.90
52415;DHT22;38340;52.964;6.086;2023-03-01T06:19:39;-4.90;99.90
52415;DHT22;38340;52.964;6.086;2023-03-01T06:22:05;-4.80;99.90
52415;DHT22;38340;52.964;6.086;2023-03-01T06:24:31;-4.80;99.90
52415;DHT22;38340;52.964;6.086;2023-03-01T06:26:56;-4.80;99.90
52415;DHT22;38340;52.964;6.086;2023-03-01T06:29:22;-4.80;99.90
52415;DHT22;38340;52.964;6.086;2023-03-01T06:31:48;-4.80;99.90
52415;DHT22;38340;52.964;6.086;2023-03-01T06:34:14;-4.70;99.90
52415;DHT22;38340;52.964;6.086;2023-03-01T06:36:40;-4.70;99.90
52415;DHT22;38340;52.964;6.086;2023-03-01T06:39:06;-4.60;99.90
52415;DHT22;38340;52.964;6.086;2023-03-01T06:41:32;-4.50;99.90
52415;DHT22;38340;52.964;6.086;2023-03-01T06:43:59;-4.40;99.90
52415;DHT22;38340;52.964;6.086;2023-03-01T06:46:25;-4.40;99.90
52415;DHT22;38340;52.964;6.086;2023-03-01T06:48:51;-4.50;99.90
52415;DHT22;38340;52.964;6.086;2023-03-01T06:51:16;-4.50;99.90
52415;DHT22;38340;52.964;6.086;2023-03-01T06:53:42;-4.50;99.90
52415;DHT22;38340;52.964;6.086;2023-03-01T06:56:08;-4.50;99.90
52415;DHT22;38340;52.964;6.086;2023-03-01T06:58:33;-4.40;99.90
52415;DHT22;38340;52.964;6.086;2023-03-01T07:00:59;-4.40;99.90
52415;DHT22;38340;52.964;6.086;2023-03-01T07:03:25;-4.40;99.90
52415;DHT22;38340;52.964;6.086;2023-03-01T07:05:51;-4.40;99.90
52415;DHT22;38340;52.964;6.086;2023-03-01T07:08:20;-4.40;99.90
52415;DHT22;38340;52.964;6.086;2023-03-01T07:10:45;-4.30;99.90
52415;DHT22;38340;52.964;6.086;2023-03-01T07:13:11;-4.20;99.90
52415;DHT22;38340;52.964;6.086;2023-03-01T07:15:37;-4.10;99.90
52415;DHT22;38340;52.964;6.086;2023-03-01T07:18:02;-3.90;99.90
52415;DHT22;38340;52.964;6.086;2023-03-01T07:20:28;-3.80;99.90
52415;DHT22;38340;52.964;6.086;2023-03-01T07:22:55;-3.70;99.90
52415;DHT22;38340;52.964;6.086;2023-03-01T07:25:21;-3.60;99.90
52415;DHT22;38340;52.964;6.086;2023-03-01T07:27:53;-3.40;99.90
52415;DHT22;38340;52.964;6.086;2023-03-01T07:30:20;-3.20;99.90
52415;DHT22;38340;52.964;6.086;2023-03-01T07:32:47;-3.10;99.90
52415;DHT22;38340;52.964;6.086;2023-03-01T07:35:12;-2.90;99.90
52415;DHT22;38340;52.964;6.086;2023-03-01T07:37:40;-2.80;99.90
52415;DHT22;38340;52.964;6.086;2023-03-01T07:40:06;-2.60;99.90
52415;DHT22;38340;52.964;6.086;2023-03-01T07:42:32;-2.50;99.90
52415;DHT22;38340;52.964;6.086;2023-03-01T07:44:58;-2.40;99.90
52415;DHT22;38340;52.964;6.086;2023-03-01T07:47:24;-2.20;99.90
52415;DHT22;38340;52.964;6.086;2023-03-01T07:49:49;-2.10;99.90
52415;DHT22;38340;52.964;6.086;2023-03-01T07:52:15;-1.90;99.90
52415;DHT22;38340;52.964;6.086;2023-03-01T07:54:42;-1.90;99.90
52415;DHT22;38340;52.964;6.086;2023-03-01T07:57:09;-1.70;99.90
52415;DHT22;38340;52.964;6.086;2023-03-01T07:59:35;-1.60;99.90
52415;DHT22;38340;52.964;6.086;2023-03-01T08:02:01;-1.40;99.90
52415;DHT22;38340;52.964;6.086;2023-03-01T08:04:26;-1.40;99.90
52415;DHT22;38340;52.964;6.086;2023-03-01T08:06:54;-1.20;99.90
52415;DHT22;38340;52.964;6.086;2023-03-01T08:09:20;-1.00;99.90
52415;DHT22;38340;52.964;6.086;2023-03-01T08:11:46;-0.90;99.90
52415;DHT22;38340;52.964;6.086;2023-03-01T08:14:11;-0.70;99.90
52415;DHT22;38340;52.964;6.086;2023-03-01T08:16:37;-0.50;99.90
52415;DHT22;38340;52.964;6.086;2023-03-01T08:19:08;-0.40;99.90
52415;DHT22;38340;52.964;6.086;2023-03-01T08:21:34;-0.30;99.90
52415;DHT22;38340;52.964;6.086;2023-03-01T08:24:04;-0.20;99.90
52415;DHT22;38340;52.964;6.086;2023-03-01T08:26:31;0.00;99.90
52415;DHT22;38340;52.964;6.086;2023-03-01T08:28:59;0.20;99.90
52415;DHT22;38340;52.964;6.086;2023-03-01T08:31:39;0.20;99.90
52415;DHT22;38340;52.964;6.086;2023-03-01T08:34:12;0.40;99.90
52415;DHT22;38340;52.964;6.086;2023-03-01T08:36:40;0.60;99.90
52415;DHT22;38340;52.964;6.086;2023-03-01T08:39:08;0.70;99.90
52415;DHT22;38340;52.964;6.086;2023-03-01T08:41:34;0.80;99.90
52415;DHT22;38340;52.964;6.086;2023-03-01T08:43:59;0.90;99.90
52415;DHT22;38340;52.964;6.086;2023-03-01T08:46:34;1.10;99.90
52415;DHT22;38340;52.964;6.086;2023-03-01T08:49:04;1.20;99.90
52415;DHT22;38340;52.964;6.086;2023-03-01T08:51:29;1.30;99.90
52415;DHT22;38340;52.964;6.086;2023-03-01T08:53:57;1.50;99.90
52415;DHT22;38340;52.964;6.086;2023-03-01T08:56:23;1.60;99.90
52415;DHT22;38340;52.964;6.086;2023-03-01T08:58:49;1.80;99.90
52415;DHT22;38340;52.964;6.086;2023-03-01T09:01:16;1.90;99.90
52415;DHT22;38340;52.964;6.086;2023-03-01T09:03:43;2.00;99.90
52415;DHT22;38340;52.964;6.086;2023-03-01T09:06:10;2.20;99.90
52415;DHT22;38340;52.964;6.086;2023-03-01T09:08:37;2.30;99.90
52415;DHT22;38340;52.964;6.086;2023-03-01T09:11:07;2.40;99.90
52415;DHT22;38340;52.964;6.086;2023-03-01T09:13:33;2.50;99.90
52415;DHT22;38340;52.964;6.086;2023-03-01T09:16:01;2.60;99.90
52415;DHT22;38340;52.964;6.086;2023-03-01T09:18:27;2.70;99.90
52415;DHT22;38340;52.964;6.086;2023-03-01T09:20:53;2.80;99.90
52415;DHT22;38340;52.964;6.086;2023-03-01T09:23:21;3.00;99.90
52415;DHT22;38340;52.964;6.086;2023-03-01T09:25:47;3.10;99.90
52415;DHT22;38340;52.964;6.086;2023-03-01T09:28:12;3.10;99.90
52415;DHT22;38340;52.964;6.086;2023-03-01T09:30:38;3.20;99.90
52415;DHT22;38340;52.964;6.086;2023-03-01T09:33:04;3.30;99.90
52415;DHT22;38340;52.964;6.086;2023-03-01T09:35:30;3.40;99.90
52415;DHT22;38340;52.964;6.086;2023-03-01T09:37:55;3.50;99.90
52415;DHT22;38340;52.964;6.086;2023-03-01T09:40:24;3.60;99.90
52415;DHT22;38340;52.964;6.086;2023-03-01T09:42:56;3.60;99.90
52415;DHT22;38340;52.964;6.086;2023-03-01T09:45:35;3.70;99.90
52415;DHT22;38340;52.964;6.086;2023-03-01T09:48:04;3.70;99.90
52415;DHT22;38340;52.964;6.086;2023-03-01T09:50:39;3.80;99.90
52415;DHT22;38340;52.964;6.086;2023-03-01T09:53:15;3.90;99.90
52415;DHT22;38340;52.964;6.086;2023-03-01T10:01:27;4.10;99.90
52415;DHT22;38340;52.964;6.086;2023-03-01T10:06:30;4.20;99.90
52415;DHT22;38340;52.964;6.086;2023-03-01T10:08:56;4.40;99.90
52415;DHT22;38340;52.964;6.086;2023-03-01T10:11:30;4.40;99.90
52415;DHT22;38340;52.964;6.086;2023-03-01T10:16:59;4.50;99.90
52415;DHT22;38340;52.964;6.086;2023-03-01T10:19:43;4.50;99.90
52415;DHT22;38340;52.964;6.086;2023-03-01T10:22:19;4.60;99.90
52415;DHT22;38340;52.964;6.086;2023-03-01T10:24:47;4.70;99.90
52415;DHT22;38340;52.964;6.086;2023-03-01T10:27:26;4.70;99.90
52415;DHT22;38340;52.964;6.086;2023-03-01T10:29:59;4.70;99.90
52415;DHT22;38340;52.964;6.086;2023-03-01T10:32:26;4.70;99.90
52415;DHT22;38340;52.964;6.086;2023-03-01T10:34:52;4.80;99.90
52415;DHT22;38340;52.964;6.086;2023-03-01T10:37:19;4.90;99.90
52415;DHT22;38340;52.964;6.086;2023-03-01T10:42:35;5.00;99.90
52415;DHT22;38340;52.964;6.086;2023-03-01T10:50:31;5.20;62.50
52415;DHT22;38340;52.964;6.086;2023-03-01T10:53:02;5.20;99.90
52415;DHT22;38340;52.964;6.086;2023-03-01T10:55:37;5.10;99.90
52415;DHT22;38340;52.964;6.086;2023-03-01T10:58:22;5.20;99.90
52415;DHT22;38340;52.964;6.086;2023-03-01T11:00:52;5.20;2.30
52415;DHT22;38340;52.964;6.086;2023-03-01T11:03:23;5.30;1.00
52415;DHT22;38340;52.964;6.086;2023-03-01T11:05:56;5.40;1.00
52415;DHT22;38340;52.964;6.086;2023-03-01T11:08:41;5.40;99.90
52415;DHT22;38340;52.964;6.086;2023-03-01T11:11:31;5.40;99.90
52415;DHT22;38340;52.964;6.086;2023-03-01T11:16:44;5.40;99.90
52415;DHT22;38340;52.964;6.086;2023-03-01T11:21:54;5.50;1.00
52415;DHT22;38340;52.964;6.086;2023-03-01T11:24:26;5.50;1.00
52415;DHT22;38340;52.964;6.086;2023-03-01T11:26:55;5.60;6.50
52415;DHT22;38340;52.964;6.086;2023-03-01T11:29:42;5.60;99.90
52415;DHT22;38340;52.964;6.086;2023-03-01T11:32:11;5.60;99.90
52415;DHT22;38340;52.964;6.086;2023-03-01T11:35:10;5.70;99.90
52415;DHT22;38340;52.964;6.086;2023-03-01T11:37:51;5.70;99.90
52415;DHT22;38340;52.964;6.086;2023-03-01T11:40:27;5.80;99.90
52415;DHT22;38340;52.964;6.086;2023-03-01T11:48:31;5.80;1.00
52415;DHT22;38340;52.964;6.086;2023-03-01T11:51:07;5.80;1.00
52415;DHT22;38340;52.964;6.086;2023-03-01T11:56:16;5.90;1.00
52415;DHT22;38340;52.964;6.086;2023-03-01T12:04:39;6.00;1.00
52415;DHT22;38340;52.964;6.086;2023-03-01T12:18:39;6.10;1.00
52415;DHT22;38340;52.964;6.086;2023-03-01T12:21:24;6.20;1.00
52415;DHT22;38340;52.964;6.086;2023-03-01T12:29:52;6.30;1.00
52415;DHT22;38340;52.964;6.086;2023-03-01T12:32:40;6.30;1.00
52415;DHT22;38340;52.964;6.086;2023-03-01T12:35:25;6.40;1.00
52415;DHT22;38340;52.964;6.086;2023-03-01T12:51:38;6.60;97.30
52415;DHT22;38340;52.964;6.086;2023-03-01T12:54:31;6.60;52.80
52415;DHT22;38340;52.964;6.086;2023-03-01T12:57:10;6.60;5.30
52415;DHT22;38340;52.964;6.086;2023-03-01T12:59:39;6.60;99.90
52415;DHT22;38340;52.964;6.086;2023-03-01T13:02:24;6.50;99.90
52415;DHT22;38340;52.964;6.086;2023-03-01T13:07:54;6.60;1.00
52415;DHT22;38340;52.964;6.086;2023-03-01T13:10:43;6.60;99.90
52415;DHT22;38340;52.964;6.086;2023-03-01T13:13:19;6.70;99.90
52415;DHT22;38340;52.964;6.086;2023-03-01T13:15:45;6.60;99.90
52415;DHT22;38340;52.964;6.086;2023-03-01T13:26:12;6.70;99.90
52415;DHT22;38340;52.964;6.086;2023-03-01T13:28:47;6.70;99.90
52415;DHT22;38340;52.964;6.086;2023-03-01T13:33:53;6.80;99.90
52415;DHT22;38340;52.964;6.086;2023-03-01T13:36:45;6.80;99.90
52415;DHT22;38340;52.964;6.086;2023-03-01T13:39:32;6.80;99.90
52415;DHT22;38340;52.964;6.086;2023-03-01T13:42:37;6.80;99.90
52415;DHT22;38340;52.964;6.086;2023-03-01T13:45:14;6.80;99.90
52415;DHT22;38340;52.964;6.086;2023-03-01T13:47:42;6.80;1.00
52415;DHT22;38340;52.964;6.086;2023-03-01T13:50:18;6.90;1.00
52415;DHT22;38340;52.964;6.086;2023-03-01T13:52:49;6.90;1.00
52415;DHT22;38340;52.964;6.086;2023-03-01T13:55:27;6.90;99.90
52415;DHT22;38340;52.964;6.086;2023-03-01T13:58:00;6.90;99.90
52415;DHT22;38340;52.964;6.086;2023-03-01T14:00:35;6.90;99.90
52415;DHT22;38340;52.964;6.086;2023-03-01T14:05:27;6.90;99.90
52415;DHT22;38340;52.964;6.086;2023-03-01T14:07:54;6.90;99.90
52415;DHT22;38340;52.964;6.086;2023-03-01T14:10:19;6.90;99.90
52415;DHT22;38340;52.964;6.086;2023-03-01T14:15:49;6.90;1.00
52415;DHT22;38340;52.964;6.086;2023-03-01T14:18:33;6.90;1.00
52415;DHT22;38340;52.964;6.086;2023-03-01T14:21:01;7.00;1.00
52415;DHT22;38340;52.964;6.086;2023-03-01T14:23:32;7.00;1.00
52415;DHT22;38340;52.964;6.086;2023-03-01T14:26:00;7.00;1.00
52415;DHT22;38340;52.964;6.086;2023-03-01T14:28:31;7.00;99.90
52415;DHT22;38340;52.964;6.086;2023-03-01T14:31:00;7.10;1.00
52415;DHT22;38340;52.964;6.086;2023-03-01T14:36:01;7.10;1.00
52415;DHT22;38340;52.964;6.086;2023-03-01T14:38:36;7.00;99.90
52415;DHT22;38340;52.964;6.086;2023-03-01T14:41:15;7.00;99.90
52415;DHT22;38340;52.964;6.086;2023-03-01T14:43:46;7.00;1.00
52415;DHT22;38340;52.964;6.086;2023-03-01T14:46:21;6.90;1.00
52415;DHT22;38340;52.964;6.086;2023-03-01T14:48:56;6.90;1.00
52415;DHT22;38340;52.964;6.086;2023-03-01T14:51:24;6.90;1.00
52415;DHT22;38340;52.964;6.086;2023-03-01T14:53:50;6.90;1.00
52415;DHT22;38340;52.964;6.086;2023-03-01T14:56:17;6.90;1.00
52415;DHT22;38340;52.964;6.086;2023-03-01T14:58:43;6.90;9.90
52415;DHT22;38340;52.964;6.086;2023-03-01T15:01:15;6.90;15.10
52415;DHT22;38340;52.964;6.086;2023-03-01T15:03:44;6.90;61.40
52415;DHT22;38340;52.964;6.086;2023-03-01T15:06:11;6.90;77.40
52415;DHT22;38340;52.964;6.086;2023-03-01T15:08:42;6.90;74.90
52415;DHT22;38340;52.964;6.086;2023-03-01T15:13:39;6.80;9.90
52415;DHT22;38340;52.964;6.086;2023-03-01T15:16:24;6.80;74.00
52415;DHT22;38340;52.964;6.086;2023-03-01T15:19:03;6.80;79.10
52415;DHT22;38340;52.964;6.086;2023-03-01T15:21:37;6.80;98.80
52415;DHT22;38340;52.964;6.086;2023-03-01T15:24:19;6.70;99.90
52415;DHT22;38340;52.964;6.086;2023-03-01T15:27:01;6.70;99.90
52415;DHT22;38340;52.964;6.086;2023-03-01T15:29:32;6.80;99.90
52415;DHT22;38340;52.964;6.086;2023-03-01T15:32:03;6.70;99.90
52415;DHT22;38340;52.964;6.086;2023-03-01T15:34:36;6.70;99.90
52415;DHT22;38340;52.964;6.086;2023-03-01T15:37:05;6.70;99.90
52415;DHT22;38340;52.964;6.086;2023-03-01T15:39:39;6.70;99.90
52415;DHT22;38340;52.964;6.086;2023-03-01T15:42:36;6.70;99.90
52415;DHT22;38340;52.964;6.086;2023-03-01T15:45:10;6.70;99.90
52415;DHT22;38340;52.964;6.086;2023-03-01T15:47:39;6.60;99.90
52415;DHT22;38340;52.964;6.086;2023-03-01T15:50:16;6.60;99.90
52415;DHT22;38340;52.964;6.086;2023-03-01T15:52:43;6.60;99.90
52415;DHT22;38340;52.964;6.086;2023-03-01T15:55:30;6.50;99.90
52415;DHT22;38340;52.964;6.086;2023-03-01T15:58:04;6.50;99.90
52415;DHT22;38340;52.964;6.086;2023-03-01T16:00:30;6.50;1.00
52415;DHT22;38340;52.964;6.086;2023-03-01T16:02:56;6.50;1.00
52415;DHT22;38340;52.964;6.086;2023-03-01T16:05:28;6.50;1.00
52415;DHT22;38340;52.964;6.086;2023-03-01T16:07:54;6.40;1.00
52415;DHT22;38340;52.964;6.086;2023-03-01T16:10:20;6.40;1.00
52415;DHT22;38340;52.964;6.086;2023-03-01T16:12:46;6.40;1.00
52415;DHT22;38340;52.964;6.086;2023-03-01T16:15:20;6.30;1.00
52415;DHT22;38340;52.964;6.086;2023-03-01T16:17:46;6.30;39.90
52415;DHT22;38340;52.964;6.086;2023-03-01T16:20:12;6.30;82.10
52415;DHT22;38340;52.964;6.086;2023-03-01T16:22:42;6.20;97.00
52415;DHT22;38340;52.964;6.086;2023-03-01T16:25:10;6.20;99.90
52415;DHT22;38340;52.964;6.086;2023-03-01T16:27:36;6.20;99.90
52415;DHT22;38340;52.964;6.086;2023-03-01T16:30:03;6.10;99.90
52415;DHT22;38340;52.964;6.086;2023-03-01T16:32:29;6.10;99.90
52415;DHT22;38340;52.964;6.086;2023-03-01T16:34:55;6.10;99.90
52415;DHT22;38340;52.964;6.086;2023-03-01T16:37:21;6.10;99.90
52415;DHT22;38340;52.964;6.086;2023-03-01T16:39:47;6.10;1.00
52415;DHT22;38340;52.964;6.086;2023-03-01T16:42:17;6.10;1.00
52415;DHT22;38340;52.964;6.086;2023-03-01T16:44:43;6.00;1.00
52415;DHT22;38340;52.964;6.086;2023-03-01T16:47:08;6.00;1.00
52415;DHT22;38340;52.964;6.086;2023-03-01T16:49:34;5.90;99.90
52415;DHT22;38340;52.964;6.086;2023-03-01T16:52:00;5.80;99.90
52415;DHT22;38340;52.964;6.086;2023-03-01T16:54:26;5.70;99.90
52415;DHT22;38340;52.964;6.086;2023-03-01T16:56:51;5.60;1.00
52415;DHT22;38340;52.964;6.086;2023-03-01T16:59:17;5.60;1.00
52415;DHT22;38340;52.964;6.086;2023-03-01T17:01:44;5.50;1.00
52415;DHT22;38340;52.964;6.086;2023-03-01T17:04:12;5.40;1.00
52415;DHT22;38340;52.964;6.086;2023-03-01T17:06:38;5.40;1.00
52415;DHT22;38340;52.964;6.086;2023-03-01T17:09:03;5.30;1.00
52415;DHT22;38340;52.964;6.086;2023-03-01T17:11:29;5.20;1.00
52415;DHT22;38340;52.964;6.086;2023-03-01T17:13:55;5.20;1.00
52415;DHT22;38340;52.964;6.086;2023-03-01T17:16:20;5.10;1.00
52415;DHT22;38340;52.964;6.086;2023-03-01T17:18:47;5.00;1.00
52415;DHT22;38340;52.964;6.086;2023-03-01T17:21:14;5.00;10.20
52415;DHT22;38340;52.964;6.086;2023-03-01T17:23:42;4.90;33.10
52415;DHT22;38340;52.964;6.086;2023-03-01T17:26:08;4.90;36.80
52415;DHT22;38340;52.964;6.086;2023-03-01T17:28:35;4.80;88.70
52415;DHT22;38340;52.964;6.086;2023-03-01T17:31:03;4.80;95.50
52415;DHT22;38340;52.964;6.086;2023-03-01T17:33:30;4.70;99.90
52415;DHT22;38340;52.964;6.086;2023-03-01T17:35:56;4.60;99.90
52415;DHT22;38340;52.964;6.086;2023-03-01T17:38:22;4.60;99.90
52415;DHT22;38340;52.964;6.086;2023-03-01T17:40:48;4.50;99.90
52415;DHT22;38340;52.964;6.086;2023-03-01T17:43:15;4.50;99.90
52415;DHT22;38340;52.964;6.086;2023-03-01T17:45:41;4.40;99.90
52415;DHT22;38340;52.964;6.086;2023-03-01T17:48:14;4.40;99.90